Time;durP1;ratioP1;P1;durP2;ratioP2;P2;SDS_P1;SDS_P2;PMS_P1;PMS_P2;Temp;Humidity;BMP_temperature;BMP_pressure;BME280_temperature;BME280_humidity;BME280_pressure;Samples;Min_cycle;Max_cycle;Signal;HPM_P1;HPM_P2
2021/10/30 00:02:20;;;;;;;29.87;27.60;;;12.90;99.90;;;;;;5031869;28;20464;-68
2021/10/30 00:04:48;;;;;;;30.23;27.33;;;12.90;99.90;;;;;;5031991;28;20529;-68
2021/10/30 00:07:15;;;;;;;31.60;27.93;;;12.80;99.90;;;;;;5029300;28;20492;-68
2021/10/30 00:09:42;;;;;;;36.27;26.83;;;12.80;99.90;;;;;;5031841;28;20463;-68
2021/10/30 00:12:10;;;;;;;30.23;27.23;;;12.70;99.90;;;;;;5030326;28;20521;-69
2021/10/30 00:14:37;;;;;;;29.97;27.37;;;12.70;99.90;;;;;;5030273;28;20463;-70
2021/10/30 00:17:04;;;;;;;35.07;27.83;;;12.70;99.90;;;;;;5035582;28;20491;-69
2021/10/30 00:19:31;;;;;;;37.33;27.73;;;12.60;99.90;;;;;;5025836;28;20465;-68
2021/10/30 00:21:59;;;;;;;40.43;28.93;;;12.50;99.90;;;;;;5031188;28;20467;-67
2021/10/30 00:24:26;;;;;;;32.03;28.87;;;12.50;99.90;;;;;;5030122;28;20468;-68
2021/10/30 00:26:53;;;;;;;38.90;29.23;;;12.30;99.90;;;;;;5029420;28;20496;-69
2021/10/30 00:29:20;;;;;;;42.47;28.27;;;12.30;99.90;;;;;;5030533;28;20484;-69
2021/10/30 00:31:46;;;;;;;36.07;30.13;;;12.20;99.90;;;;;;5036017;28;20475;-68
2021/10/30 00:34:13;;;;;;;44.67;30.03;;;12.20;99.90;;;;;;5031330;28;20464;-68
2021/10/30 00:36:40;;;;;;;42.23;28.70;;;12.20;99.90;;;;;;5030046;28;20585;-68
2021/10/30 00:39:10;;;;;;;33.07;29.30;;;12.10;99.90;;;;;;5037674;28;20551;-70
2021/10/30 00:41:37;;;;;;;31.67;28.60;;;12.00;99.90;;;;;;5029099;28;20472;-68
2021/10/30 00:44:08;;;;;;;31.80;28.60;;;12.00;99.90;;;;;;5031647;28;20469;-69
2021/10/30 00:46:35;;;;;;;34.10;30.37;;;11.90;99.90;;;;;;5039821;28;20637;-68
2021/10/30 00:49:03;;;;;;;31.90;28.60;;;11.90;99.90;;;;;;5039745;28;20495;-68
2021/10/30 00:51:32;;;;;;;31.50;28.70;;;11.90;99.90;;;;;;5043007;27;20510;-69
2021/10/30 00:54:00;;;;;;;30.00;27.30;;;11.90;99.90;;;;;;5033610;27;20500;-69
2021/10/30 00:56:32;;;;;;;30.77;28.13;;;11.90;99.90;;;;;;5028826;28;20868;-68
2021/10/30 00:59:01;;;;;;;29.20;26.70;;;11.90;99.90;;;;;;5024872;28;20471;-70
2021/10/30 01:01:28;;;;;;;29.90;26.80;;;11.80;99.90;;;;;;5032040;28;20460;-70
2021/10/30 01:03:55;;;;;;;30.93;28.33;;;11.80;99.90;;;;;;5031593;28;20475;-68
2021/10/30 01:06:22;;;;;;;31.00;27.10;;;11.80;99.90;;;;;;5032147;28;20992;-68
2021/10/30 01:08:49;;;;;;;30.97;27.53;;;11.80;99.90;;;;;;5032051;28;20494;-68
2021/10/30 01:11:17;;;;;;;28.53;26.13;;;11.80;99.90;;;;;;5032011;28;20469;-68
2021/10/30 01:13:46;;;;;;;27.47;25.33;;;11.80;99.90;;;;;;5031112;28;20460;-71
2021/10/30 01:16:13;;;;;;;29.07;26.03;;;11.80;99.90;;;;;;5030515;28;20543;-68
2021/10/30 01:18:41;;;;;;;30.07;27.27;;;11.80;99.90;;;;;;5026774;28;20499;-69
2021/10/30 01:21:09;;;;;;;26.50;24.20;;;11.80;99.90;;;;;;5031384;27;20802;-68
2021/10/30 01:23:36;;;;;;;28.43;25.37;;;11.80;99.90;;;;;;5032193;28;20471;-71
2021/10/30 01:26:04;;;;;;;26.47;24.47;;;11.80;99.90;;;;;;5031251;28;20478;-69
2021/10/30 01:28:35;;;;;;;26.07;23.90;;;11.80;99.90;;;;;;5031977;28;21017;-68
2021/10/30 01:31:03;;;;;;;25.70;23.40;;;11.80;99.90;;;;;;5028545;28;20803;-68
2021/10/30 01:33:30;;;;;;;26.43;23.57;;;11.80;99.90;;;;;;5037243;28;20520;-68
2021/10/30 01:35:57;;;;;;;24.83;22.60;;;11.70;99.90;;;;;;5030347;28;20477;-68
2021/10/30 01:38:25;;;;;;;24.53;22.03;;;11.70;99.90;;;;;;5026022;28;21131;-70
2021/10/30 01:40:52;;;;;;;25.07;23.00;;;11.70;99.90;;;;;;5031038;28;20469;-69
2021/10/30 01:43:19;;;;;;;22.60;20.90;;;11.70;99.90;;;;;;5031503;28;20476;-68
2021/10/30 01:45:46;;;;;;;24.33;22.53;;;11.70;99.90;;;;;;5031274;28;20488;-69
2021/10/30 01:48:14;;;;;;;22.67;20.93;;;11.70;99.90;;;;;;5023356;28;20496;-69
2021/10/30 01:50:42;;;;;;;23.67;21.30;;;11.70;99.90;;;;;;5036526;27;20464;-68
2021/10/30 01:53:10;;;;;;;23.30;21.10;;;11.60;99.90;;;;;;5032385;27;20461;-71
2021/10/30 01:55:39;;;;;;;23.30;21.07;;;11.60;99.90;;;;;;5023481;28;20461;-69
2021/10/30 01:58:07;;;;;;;22.63;20.70;;;11.60;99.90;;;;;;5028062;28;21025;-70
2021/10/30 02:00:36;;;;;;;23.93;21.57;;;11.60;99.90;;;;;;5030563;28;20464;-68
2021/10/30 02:03:03;;;;;;;21.67;19.90;;;11.60;99.90;;;;;;5027908;28;20487;-68
2021/10/30 02:05:30;;;;;;;22.03;20.17;;;11.60;99.90;;;;;;5023788;28;20464;-67
2021/10/30 02:07:57;;;;;;;22.10;20.10;;;11.60;99.90;;;;;;5033702;28;20570;-70
2021/10/30 02:10:24;;;;;;;21.90;20.23;;;11.60;99.90;;;;;;5029681;28;20476;-69
2021/10/30 02:12:52;;;;;;;21.63;19.53;;;11.60;99.90;;;;;;5032191;28;20476;-69
2021/10/30 02:15:19;;;;;;;21.20;19.40;;;11.60;99.90;;;;;;5032702;28;20950;-71
2021/10/30 02:17:46;;;;;;;22.50;20.37;;;11.50;99.90;;;;;;5030989;28;20455;-68
2021/10/30 02:20:13;;;;;;;20.90;19.30;;;11.60;99.90;;;;;;5023606;28;20843;-68
2021/10/30 02:22:40;;;;;;;22.17;19.93;;;11.60;99.90;;;;;;5032162;28;20472;-68
2021/10/30 02:25:09;;;;;;;29.13;20.20;;;11.50;99.90;;;;;;5032384;28;20462;-69
2021/10/30 02:27:36;;;;;;;22.17;20.13;;;11.50;99.90;;;;;;5027233;28;20507;-71
2021/10/30 02:30:06;;;;;;;21.23;19.53;;;11.50;99.90;;;;;;5026589;28;20471;-70
2021/10/30 02:32:33;;;;;;;21.80;20.10;;;11.50;99.90;;;;;;5024635;28;21223;-69
2021/10/30 02:34:59;;;;;;;22.20;20.10;;;11.60;99.90;;;;;;5027703;28;20465;-68
2021/10/30 02:37:26;;;;;;;21.00;19.47;;;11.60;99.90;;;;;;5027661;28;20464;-71
2021/10/30 02:39:53;;;;;;;23.07;19.57;;;11.60;99.90;;;;;;5027033;28;20476;-69
2021/10/30 02:42:20;;;;;;;20.30;18.90;;;11.60;99.90;;;;;;5026731;28;20491;-71
2021/10/30 02:44:47;;;;;;;19.97;18.67;;;11.60;99.90;;;;;;5028134;28;20488;-69
2021/10/30 02:47:15;;;;;;;20.83;19.00;;;11.60;99.90;;;;;;5031152;28;20550;-69
2021/10/30 02:49:42;;;;;;;22.27;20.07;;;11.70;99.90;;;;;;5033072;28;20500;-70
2021/10/30 02:52:09;;;;;;;21.77;19.87;;;11.70;99.90;;;;;;5035550;27;20461;-69
2021/10/30 02:54:36;;;;;;;20.47;18.70;;;11.70;99.90;;;;;;5029281;28;20469;-69
2021/10/30 02:57:04;;;;;;;20.63;18.70;;;11.80;99.90;;;;;;5028634;28;20467;-69
2021/10/30 02:59:30;;;;;;;21.47;18.70;;;11.70;99.90;;;;;;5031655;28;20460;-69
2021/10/30 03:01:57;;;;;;;20.97;19.17;;;11.70;99.90;;;;;;5027477;28;20483;-71
2021/10/30 03:04:26;;;;;;;21.13;18.90;;;11.70;99.90;;;;;;5028358;28;20550;-69
2021/10/30 03:06:53;;;;;;;21.10;19.40;;;11.70;99.90;;;;;;5029466;28;20511;-71
2021/10/30 03:09:20;;;;;;;20.50;18.70;;;11.80;99.90;;;;;;5031603;28;20531;-69
2021/10/30 03:11:47;;;;;;;20.80;19.00;;;11.80;99.90;;;;;;5033293;28;20467;-69
2021/10/30 03:14:13;;;;;;;20.53;18.73;;;11.80;99.90;;;;;;5032142;28;20479;-69
2021/10/30 03:16:40;;;;;;;20.47;18.87;;;11.90;99.90;;;;;;5027079;28;20457;-68
2021/10/30 03:19:07;;;;;;;22.40;20.60;;;11.90;99.90;;;;;;5028856;28;20471;-70
2021/10/30 03:21:36;;;;;;;23.27;21.50;;;11.80;99.90;;;;;;5028162;28;20470;-69
2021/10/30 03:24:04;;;;;;;23.50;21.70;;;11.80;99.90;;;;;;5033267;28;20819;-68
2021/10/30 03:26:30;;;;;;;24.33;22.63;;;11.70;99.90;;;;;;5028770;28;20494;-68
2021/10/30 03:28:57;;;;;;;25.13;23.23;;;11.70;99.90;;;;;;5033243;28;20492;-68
2021/10/30 03:31:24;;;;;;;26.30;24.03;;;11.60;99.90;;;;;;5022913;28;20860;-68
2021/10/30 03:33:51;;;;;;;26.50;24.20;;;11.60;99.90;;;;;;5021083;28;20923;-68
2021/10/30 03:36:18;;;;;;;26.93;24.53;;;11.60;99.90;;;;;;5020748;28;21596;-67
2021/10/30 03:38:47;;;;;;;27.37;25.17;;;11.60;99.90;;;;;;5033183;28;20467;-68
2021/10/30 03:41:14;;;;;;;28.23;25.90;;;11.60;99.90;;;;;;5028884;28;20460;-70
2021/10/30 03:43:41;;;;;;;28.73;26.63;;;11.50;99.90;;;;;;5029889;28;20567;-69
2021/10/30 03:46:08;;;;;;;30.03;27.23;;;11.50;99.90;;;;;;5026767;28;20502;-69
2021/10/30 03:48:35;;;;;;;31.30;28.40;;;11.50;99.90;;;;;;5029177;28;20496;-67
2021/10/30 03:51:01;;;;;;;33.43;30.07;;;11.50;99.90;;;;;;5059330;27;20459;-69
2021/10/30 03:53:29;;;;;;;30.80;27.90;;;11.40;99.90;;;;;;5033598;27;20464;-67
2021/10/30 03:55:57;;;;;;;30.47;27.90;;;11.40;99.90;;;;;;5025768;28;20469;-69
2021/10/30 03:58:24;;;;;;;31.63;29.13;;;11.30;99.90;;;;;;5021226;28;20468;-69
2021/10/30 04:00:51;;;;;;;31.83;28.63;;;11.30;99.90;;;;;;5035356;28;20465;-70
2021/10/30 04:03:18;;;;;;;31.43;28.50;;;11.30;99.90;;;;;;5027292;28;20552;-69
2021/10/30 04:05:45;;;;;;;31.30;28.63;;;11.20;99.90;;;;;;5033375;28;21014;-69
2021/10/30 04:08:14;;;;;;;31.90;28.60;;;11.30;99.90;;;;;;5030918;28;21227;-69
2021/10/30 04:10:42;;;;;;;30.97;28.20;;;11.30;99.90;;;;;;5021896;28;20533;-69
2021/10/30 04:13:10;;;;;;;36.63;28.27;;;11.20;99.90;;;;;;5027867;28;20463;-70
2021/10/30 04:15:37;;;;;;;30.70;27.87;;;11.20;99.90;;;;;;5033134;28;20475;-69
2021/10/30 04:18:04;;;;;;;30.57;27.47;;;11.20;99.90;;;;;;5025127;28;20464;-70
2021/10/30 04:20:31;;;;;;;31.07;28.23;;;11.20;99.90;;;;;;5033334;28;20468;-71
2021/10/30 04:22:58;;;;;;;29.93;27.27;;;11.20;99.90;;;;;;5028142;28;20488;-69
2021/10/30 04:25:25;;;;;;;31.57;28.40;;;11.10;99.90;;;;;;5031785;28;20508;-69
2021/10/30 04:27:52;;;;;;;29.73;27.33;;;11.10;99.90;;;;;;5026997;28;20461;-69
2021/10/30 04:30:20;;;;;;;29.63;27.20;;;11.00;99.90;;;;;;5029054;28;21092;-69
2021/10/30 04:32:47;;;;;;;29.43;26.63;;;11.00;99.90;;;;;;5029618;28;20863;-69
2021/10/30 04:35:14;;;;;;;31.73;28.33;;;11.10;99.90;;;;;;5034682;28;20468;-69
2021/10/30 04:37:40;;;;;;;31.67;28.63;;;11.10;99.90;;;;;;5021802;28;20934;-70
2021/10/30 04:40:08;;;;;;;29.13;26.63;;;11.10;99.90;;;;;;5027922;28;20540;-71
2021/10/30 04:42:35;;;;;;;29.30;26.63;;;11.10;99.90;;;;;;5024395;28;20536;-71
2021/10/30 04:45:04;;;;;;;30.10;27.57;;;11.10;99.90;;;;;;5025316;28;20492;-71
2021/10/30 04:47:32;;;;;;;30.17;27.87;;;11.10;99.90;;;;;;5028485;28;20464;-69
2021/10/30 04:49:59;;;;;;;29.47;27.10;;;11.10;99.90;;;;;;5028340;28;20492;-70
2021/10/30 04:52:27;;;;;;;31.30;28.27;;;11.10;99.90;;;;;;5062265;27;20544;-69
2021/10/30 04:54:54;;;;;;;30.10;27.70;;;11.10;99.90;;;;;;5034999;28;20470;-69
2021/10/30 04:57:21;;;;;;;30.80;28.17;;;11.10;99.90;;;;;;5028441;28;20973;-68
2021/10/30 04:59:47;;;;;;;30.87;28.10;;;11.10;99.90;;;;;;5031144;28;20457;-72
2021/10/30 05:02:14;;;;;;;29.83;27.30;;;11.10;99.90;;;;;;5031887;28;20467;-70
2021/10/30 05:04:43;;;;;;;32.10;28.97;;;11.00;99.90;;;;;;5027846;28;20469;-70
2021/10/30 05:07:10;;;;;;;31.90;29.30;;;11.10;99.90;;;;;;5023220;28;20457;-70
2021/10/30 05:09:37;;;;;;;31.47;28.67;;;11.10;99.90;;;;;;5028903;28;20867;-71
2021/10/30 05:12:06;;;;;;;31.37;28.60;;;11.10;99.90;;;;;;5028766;28;20465;-69
2021/10/30 05:14:33;;;;;;;31.30;28.30;;;11.00;99.90;;;;;;5032239;28;20534;-69
2021/10/30 05:17:00;;;;;;;31.87;29.17;;;11.00;99.90;;;;;;5027993;28;20476;-70
2021/10/30 05:19:27;;;;;;;31.97;29.33;;;11.00;99.90;;;;;;5032438;28;20531;-69
2021/10/30 05:21:56;;;;;;;30.87;28.30;;;11.00;99.90;;;;;;5024199;28;20470;-69
2021/10/30 05:24:23;;;;;;;33.30;29.50;;;11.00;99.90;;;;;;5030580;28;20471;-71
2021/10/30 05:26:50;;;;;;;31.63;28.77;;;11.10;99.90;;;;;;5029778;28;20953;-69
2021/10/30 05:29:18;;;;;;;30.30;27.77;;;11.00;99.90;;;;;;5039521;28;20491;-70
2021/10/30 05:31:45;;;;;;;30.13;27.73;;;11.10;99.90;;;;;;5030330;28;20830;-68
2021/10/30 05:34:12;;;;;;;29.67;27.27;;;11.10;99.90;;;;;;5032047;28;20456;-69
2021/10/30 05:36:40;;;;;;;29.50;26.87;;;11.10;99.90;;;;;;5031180;28;20839;-69
2021/10/30 05:39:14;;;;;;;28.27;25.53;;;11.10;99.90;;;;;;5031571;28;21004;-69
2021/10/30 05:41:42;;;;;;;28.50;25.80;;;11.20;99.90;;;;;;5029550;28;20467;-69
2021/10/30 05:44:09;;;;;;;27.50;25.20;;;11.20;99.90;;;;;;5035387;28;20475;-71
2021/10/30 05:46:37;;;;;;;28.50;25.80;;;11.20;99.90;;;;;;5034991;28;20467;-71
2021/10/30 05:49:05;;;;;;;27.93;25.17;;;11.10;99.90;;;;;;5028464;28;20481;-69
2021/10/30 05:51:33;;;;;;;27.67;25.03;;;11.20;99.90;;;;;;5028874;27;20460;-71
2021/10/30 05:54:01;;;;;;;27.13;24.53;;;11.10;99.90;;;;;;5027912;28;20509;-71
2021/10/30 05:56:30;;;;;;;28.37;25.63;;;11.20;99.90;;;;;;5030404;28;21043;-70
2021/10/30 05:58:58;;;;;;;27.47;24.93;;;11.20;99.90;;;;;;5029398;28;20460;-69
2021/10/30 06:01:25;;;;;;;27.37;25.37;;;11.20;99.90;;;;;;5024800;27;20503;-70
2021/10/30 06:03:52;;;;;;;28.47;25.47;;;11.20;99.90;;;;;;5029681;28;20459;-71
2021/10/30 06:06:19;;;;;;;26.90;24.87;;;11.20;99.90;;;;;;5026058;28;20468;-71
2021/10/30 06:08:47;;;;;;;26.40;24.30;;;11.20;99.90;;;;;;5030298;28;20464;-71
2021/10/30 06:11:14;;;;;;;27.43;25.03;;;11.30;99.90;;;;;;5028727;28;20469;-70
2021/10/30 06:13:42;;;;;;;27.07;24.60;;;11.30;99.90;;;;;;5030685;28;20464;-69
2021/10/30 06:16:09;;;;;;;26.27;24.07;;;11.30;99.90;;;;;;5029675;28;20468;-70
2021/10/30 06:18:36;;;;;;;25.30;23.60;;;11.40;99.90;;;;;;5028881;28;20986;-70
2021/10/30 06:21:03;;;;;;;27.73;25.30;;;11.40;99.90;;;;;;5030537;28;20464;-69
2021/10/30 06:23:30;;;;;;;27.90;25.23;;;11.50;99.90;;;;;;5025574;28;20574;-69
2021/10/30 06:25:57;;;;;;;26.73;24.60;;;11.40;99.90;;;;;;5028542;28;21001;-71
2021/10/30 06:28:24;;;;;;;28.30;26.00;;;11.40;99.90;;;;;;5031656;28;20945;-69
2021/10/30 06:30:53;;;;;;;27.17;24.90;;;11.40;99.90;;;;;;5026728;28;20603;-71
2021/10/30 06:33:20;;;;;;;27.83;25.10;;;11.50;99.90;;;;;;5029274;28;20575;-72
2021/10/30 06:35:47;;;;;;;27.27;25.00;;;11.50;99.90;;;;;;5029538;28;20548;-70
2021/10/30 06:38:14;;;;;;;27.80;25.70;;;11.50;99.90;;;;;;5029414;28;20461;-70
2021/10/30 06:40:41;;;;;;;27.80;25.60;;;11.60;99.90;;;;;;5030897;28;20465;-70
2021/10/30 06:43:09;;;;;;;26.00;23.90;;;11.60;99.90;;;;;;5031196;28;20474;-70
2021/10/30 06:45:36;;;;;;;25.90;24.00;;;11.70;99.90;;;;;;5029480;28;20541;-71
2021/10/30 06:48:05;;;;;;;26.37;23.80;;;11.70;99.90;;;;;;5025593;28;20479;-70
2021/10/30 06:50:32;;;;;;;25.87;23.80;;;11.70;99.90;;;;;;5028343;27;20492;-70
2021/10/30 06:52:59;;;;;;;26.73;24.33;;;11.70;99.90;;;;;;5029297;27;20471;-70
2021/10/30 06:55:26;;;;;;;26.70;24.80;;;11.60;99.90;;;;;;5028346;28;20475;-70
2021/10/30 06:57:53;;;;;;;24.80;22.87;;;11.60;99.90;;;;;;5024644;28;20467;-71
2021/10/30 07:00:20;;;;;;;27.00;24.70;;;11.70;99.90;;;;;;5028043;28;20548;-71
2021/10/30 07:02:51;;;;;;;26.57;24.57;;;11.70;99.90;;;;;;5023764;28;20484;-70
2021/10/30 07:05:21;;;;;;;26.80;24.23;;;11.70;99.90;;;;;;5024704;28;20476;-71
2021/10/30 07:07:48;;;;;;;26.37;24.27;;;11.70;99.90;;;;;;5022463;28;20612;-71
2021/10/30 07:10:16;;;;;;;26.03;24.03;;;11.70;99.90;;;;;;5031893;28;20484;-70
2021/10/30 07:12:44;;;;;;;26.13;24.07;;;11.70;99.90;;;;;;5027306;28;20558;-72
2021/10/30 07:15:13;;;;;;;25.40;23.50;;;11.80;99.90;;;;;;5025262;28;20465;-71
2021/10/30 07:17:41;;;;;;;25.83;23.43;;;11.80;99.90;;;;;;5021832;28;20473;-73
2021/10/30 07:20:09;;;;;;;24.90;22.87;;;11.80;99.90;;;;;;5032245;28;20475;-70
2021/10/30 07:22:46;;;;;;;26.10;23.33;;;11.80;99.90;;;;;;5029041;28;20464;-71
2021/10/30 07:25:15;;;;;;;25.53;23.60;;;11.90;99.90;;;;;;5028642;28;20460;-70
2021/10/30 07:27:44;;;;;;;25.23;23.33;;;11.90;99.90;;;;;;5027049;28;20977;-71
2021/10/30 07:30:13;;;;;;;24.40;22.70;;;11.90;99.90;;;;;;5025680;28;20511;-72
2021/10/30 07:32:41;;;;;;;24.97;22.90;;;11.90;99.90;;;;;;5027592;28;20957;-70
2021/10/30 07:35:09;;;;;;;24.67;23.07;;;12.00;99.90;;;;;;5023681;28;20479;-70
2021/10/30 07:37:37;;;;;;;26.43;24.07;;;12.00;99.90;;;;;;5030187;28;20830;-71
2021/10/30 07:40:07;;;;;;;25.53;23.20;;;12.10;99.90;;;;;;5026888;28;20556;-70
2021/10/30 07:42:34;;;;;;;25.10;23.40;;;12.10;99.90;;;;;;5026461;28;20467;-71
2021/10/30 07:45:02;;;;;;;26.10;23.90;;;12.20;99.90;;;;;;5030914;28;20484;-71
2021/10/30 07:47:29;;;;;;;24.97;23.13;;;12.20;99.90;;;;;;5023413;28;20949;-70
2021/10/30 07:49:57;;;;;;;24.97;23.17;;;12.20;99.90;;;;;;5032949;28;20583;-67
2021/10/30 07:52:24;;;;;;;24.80;23.13;;;12.20;99.90;;;;;;5052693;27;20467;-69
2021/10/30 07:54:51;;;;;;;25.60;23.17;;;12.20;99.90;;;;;;5024444;28;20456;-71
2021/10/30 07:57:19;;;;;;;26.03;24.03;;;12.30;99.90;;;;;;5025759;28;20533;-69
2021/10/30 07:59:50;;;;;;;25.80;23.77;;;12.30;99.90;;;;;;5028627;28;20526;-70
2021/10/30 08:02:18;;;;;;;26.33;24.13;;;12.30;99.90;;;;;;5033224;28;20911;-68
2021/10/30 08:04:45;;;;;;;24.70;23.00;;;12.30;99.90;;;;;;5022452;28;20966;-69
2021/10/30 08:07:13;;;;;;;25.57;23.77;;;12.30;99.90;;;;;;5027401;28;20474;-68
2021/10/30 08:09:41;;;;;;;26.33;23.40;;;12.30;99.90;;;;;;5025705;28;20984;-69
2021/10/30 08:12:10;;;;;;;25.00;23.10;;;12.30;99.90;;;;;;5026042;28;21000;-69
2021/10/30 08:14:39;;;;;;;28.87;26.20;;;12.30;99.90;;;;;;5029475;28;20526;-68
2021/10/30 08:17:07;;;;;;;26.97;24.50;;;12.30;99.90;;;;;;5025674;28;20496;-69
2021/10/30 08:19:34;;;;;;;26.27;24.30;;;12.30;99.90;;;;;;5026565;28;20478;-69
2021/10/30 08:22:01;;;;;;;25.53;23.70;;;12.30;99.90;;;;;;5028682;28;20464;-70
2021/10/30 08:24:28;;;;;;;28.63;23.97;;;12.30;99.90;;;;;;5030876;28;20464;-68
2021/10/30 08:26:55;;;;;;;25.10;23.30;;;12.30;99.90;;;;;;5034206;28;20537;-69
2021/10/30 08:29:22;;;;;;;25.80;23.90;;;12.30;99.90;;;;;;5024247;28;20457;-70
2021/10/30 08:31:52;;;;;;;25.20;23.37;;;12.30;99.90;;;;;;5036365;28;20879;-69
2021/10/30 08:34:21;;;;;;;24.73;23.00;;;12.40;99.90;;;;;;5032637;28;20460;-68
2021/10/30 08:36:48;;;;;;;24.17;22.47;;;12.40;99.90;;;;;;5025318;28;20494;-70
2021/10/30 08:39:15;;;;;;;24.17;22.33;;;12.50;99.90;;;;;;5023954;28;20460;-70
2021/10/30 08:41:42;;;;;;;24.60;22.90;;;12.50;99.90;;;;;;5028390;28;20471;-68
2021/10/30 08:44:10;;;;;;;25.10;23.10;;;12.50;99.90;;;;;;5027131;28;21528;-68
2021/10/30 08:46:38;;;;;;;24.83;22.87;;;12.60;99.90;;;;;;5024776;28;21057;-70
2021/10/30 08:49:10;;;;;;;25.57;23.53;;;12.60;99.90;;;;;;5024859;28;20455;-68
2021/10/30 08:51:38;;;;;;;23.97;22.37;;;12.60;99.90;;;;;;5027466;27;20536;-70
2021/10/30 08:54:05;;;;;;;24.90;23.00;;;12.70;99.90;;;;;;5033317;28;20460;-71
2021/10/30 08:56:32;;;;;;;24.00;22.17;;;12.70;99.90;;;;;;5026525;28;20850;-71
2021/10/30 08:59:01;;;;;;;24.27;22.30;;;12.70;99.90;;;;;;5031347;28;20506;-70
2021/10/30 09:01:28;;;;;;;22.90;21.40;;;12.70;99.90;;;;;;5031742;28;20995;-71
2021/10/30 09:03:58;;;;;;;24.00;22.37;;;12.70;99.90;;;;;;5026950;28;20527;-71
2021/10/30 09:06:36;;;;;;;23.90;22.10;;;12.70;99.90;;;;;;5029958;27;20749;-70
2021/10/30 09:09:05;;;;;;;25.43;23.40;;;12.70;99.90;;;;;;5030263;28;20463;-71
2021/10/30 09:11:32;;;;;;;24.60;22.70;;;12.80;99.90;;;;;;5029420;27;20998;-70
2021/10/30 09:13:59;;;;;;;23.23;21.43;;;12.80;99.90;;;;;;5024108;27;20460;-70
2021/10/30 09:16:27;;;;;;;23.70;22.00;;;12.90;99.90;;;;;;5030984;28;20909;-70
2021/10/30 09:18:54;;;;;;;22.87;21.37;;;12.90;99.90;;;;;;5027273;28;20495;-70
2021/10/30 09:21:21;;;;;;;22.80;21.40;;;13.00;99.90;;;;;;5031363;28;20468;-70
2021/10/30 09:23:58;;;;;;;22.43;20.50;;;13.00;99.90;;;;;;5032276;28;20562;-70
2021/10/30 09:26:27;;;;;;;23.57;21.97;;;13.10;99.90;;;;;;5030763;28;20949;-69
2021/10/30 09:29:00;;;;;;;23.77;22.17;;;13.20;99.90;;;;;;5032402;28;20475;-69
2021/10/30 09:31:28;;;;;;;23.70;21.90;;;13.20;99.90;;;;;;5030940;28;20491;-70
2021/10/30 09:33:57;;;;;;;24.10;22.30;;;13.30;99.90;;;;;;5025956;28;20913;-71
2021/10/30 09:36:29;;;;;;;23.47;21.60;;;13.30;99.90;;;;;;5031737;28;20484;-71
2021/10/30 09:39:02;;;;;;;24.13;21.80;;;13.30;99.90;;;;;;5026913;28;20988;-72
2021/10/30 09:41:31;;;;;;;24.03;21.93;;;13.40;99.90;;;;;;5021824;28;20471;-70
2021/10/30 09:44:00;;;;;;;23.37;21.77;;;13.40;99.90;;;;;;5035429;28;20467;-71
2021/10/30 09:46:29;;;;;;;24.30;22.17;;;13.40;99.90;;;;;;5030509;28;20463;-71
2021/10/30 09:48:58;;;;;;;24.77;22.77;;;13.40;99.90;;;;;;5031569;28;20852;-70
2021/10/30 09:51:31;;;;;;;23.30;21.50;;;13.40;99.90;;;;;;5029488;27;20499;-71
2021/10/30 09:54:00;;;;;;;24.10;22.50;;;13.40;99.90;;;;;;5029685;28;20480;-71
2021/10/30 09:56:41;;;;;;;23.20;21.50;;;13.40;99.90;;;;;;5031773;28;20989;-70
2021/10/30 09:59:10;;;;;;;25.90;24.13;;;13.40;99.90;;;;;;5030061;28;21164;-72
2021/10/30 10:01:38;;;;;;;24.37;22.47;;;13.40;99.90;;;;;;5028982;28;20472;-70
2021/10/30 10:04:06;;;;;;;22.87;21.37;;;13.30;99.90;;;;;;5022965;28;20788;-69
2021/10/30 10:06:34;;;;;;;22.80;21.30;;;13.30;99.90;;;;;;5024629;28;20544;-70
2021/10/30 10:09:03;;;;;;;23.67;21.77;;;13.30;99.90;;;;;;5031568;28;20629;-71
2021/10/30 10:11:31;;;;;;;23.40;21.37;;;13.20;99.90;;;;;;5024030;28;20875;-71
2021/10/30 10:13:58;;;;;;;22.83;21.20;;;13.30;99.90;;;;;;5026180;28;20465;-71
2021/10/30 10:16:26;;;;;;;24.03;22.23;;;13.30;99.90;;;;;;5028981;28;20699;-71
2021/10/30 10:18:54;;;;;;;23.60;21.90;;;13.30;99.90;;;;;;5026599;28;20471;-70
2021/10/30 10:21:23;;;;;;;23.70;21.83;;;13.30;99.90;;;;;;5025851;28;20467;-70
2021/10/30 10:23:51;;;;;;;23.00;21.30;;;13.30;99.90;;;;;;5023023;28;20469;-70
2021/10/30 10:26:29;;;;;;;23.73;22.13;;;13.30;99.90;;;;;;5030830;28;20460;-73
2021/10/30 10:29:04;;;;;;;22.60;21.00;;;13.30;99.90;;;;;;5032047;28;20463;-71
2021/10/30 10:31:32;;;;;;;23.20;21.40;;;13.30;99.90;;;;;;5027237;28;20507;-72
2021/10/30 10:34:10;;;;;;;21.90;20.60;;;13.30;99.90;;;;;;5029989;28;20491;-72
2021/10/30 10:36:38;;;;;;;22.40;20.90;;;13.30;99.90;;;;;;5027960;28;20560;-73
2021/10/30 10:39:22;;;;;;;22.73;21.00;;;13.40;99.90;;;;;;5031881;28;20467;-71
2021/10/30 10:42:00;;;;;;;22.00;20.70;;;13.40;99.90;;;;;;5025703;28;20457;-71
2021/10/30 10:45:02;;;;;;;23.10;21.40;;;13.40;99.90;;;;;;5023017;28;20500;-72
2021/10/30 10:50:37;;;;;;;22.73;21.00;;;13.40;99.90;;;;;;5039049;22;20498;-72
2021/10/30 10:53:24;;;;;;;21.70;20.40;;;13.40;99.90;;;;;;4990090;28;20466;-72
2021/10/30 10:56:13;;;;;;;21.50;20.10;;;13.40;99.90;;;;;;4991696;28;20465;-71
2021/10/30 10:59:16;;;;;;;22.33;20.97;;;13.40;99.90;;;;;;4989518;28;20477;-72
2021/10/30 11:02:22;;;;;;;23.67;21.97;;;13.40;99.90;;;;;;4986542;28;20490;-71
2021/10/30 11:05:28;;;;;;;22.43;20.80;;;13.40;99.90;;;;;;4985042;28;20462;-72
2021/10/30 11:08:32;;;;;;;22.07;20.47;;;13.40;99.90;;;;;;4987168;28;21008;-70
2021/10/30 11:11:21;;;;;;;22.87;21.03;;;13.40;99.90;;;;;;4988076;28;20474;-71
2021/10/30 11:14:01;;;;;;;23.20;21.60;;;13.40;99.90;;;;;;4988267;28;20497;-71
2021/10/30 11:16:37;;;;;;;23.10;21.60;;;13.40;99.90;;;;;;4979876;28;20470;-69
2021/10/30 11:19:32;;;;;;;23.20;21.20;;;13.30;99.90;;;;;;4990909;28;20458;-71
2021/10/30 11:22:14;;;;;;;21.90;20.33;;;13.30;99.90;;;;;;4996858;28;20458;-70
2021/10/30 11:24:54;;;;;;;23.33;21.43;;;13.30;99.90;;;;;;4993252;28;20815;-71
2021/10/30 11:27:21;;;;;;;23.30;21.60;;;13.30;99.90;;;;;;4992817;28;20622;-70
2021/10/30 11:29:50;;;;;;;23.30;21.43;;;13.30;99.90;;;;;;4990182;28;20470;-70
2021/10/30 11:32:20;;;;;;;22.73;20.90;;;13.30;99.90;;;;;;4986446;28;20494;-71
2021/10/30 11:34:54;;;;;;;24.50;22.70;;;13.30;99.90;;;;;;4993694;28;20474;-70
2021/10/30 11:37:21;;;;;;;23.33;21.50;;;13.30;99.90;;;;;;4992667;28;20974;-70
2021/10/30 11:39:50;;;;;;;23.33;21.43;;;13.20;99.90;;;;;;4991216;28;20843;-70
2021/10/30 11:42:17;;;;;;;23.87;22.27;;;13.20;99.90;;;;;;4995690;28;20550;-71
2021/10/30 11:44:53;;;;;;;23.50;21.80;;;13.20;99.90;;;;;;4993163;28;20489;-71
2021/10/30 11:47:29;;;;;;;23.27;21.37;;;13.30;99.90;;;;;;4993706;28;20465;-71
2021/10/30 11:49:58;;;;;;;22.83;21.13;;;13.30;99.90;;;;;;4993313;28;20489;-71
2021/10/30 11:52:27;;;;;;;22.53;20.80;;;13.30;99.90;;;;;;4986630;28;20493;-72
2021/10/30 11:54:59;;;;;;;22.80;21.30;;;13.30;99.90;;;;;;4997137;28;20472;-72
2021/10/30 11:57:28;;;;;;;22.87;21.37;;;13.30;99.90;;;;;;4987901;28;20470;-71
2021/10/30 12:00:05;;;;;;;22.13;20.53;;;13.30;99.90;;;;;;4986895;28;20462;-70
2021/10/30 12:02:33;;;;;;;22.97;21.57;;;13.30;99.90;;;;;;4997090;28;20466;-71
2021/10/30 12:05:11;;;;;;;22.63;20.73;;;13.30;99.90;;;;;;4993538;28;20466;-70
2021/10/30 12:07:38;;;;;;;22.63;21.03;;;13.30;99.90;;;;;;5000811;28;20476;-72
2021/10/30 12:10:07;;;;;;;22.47;20.87;;;13.30;99.90;;;;;;4998270;28;20462;-71
2021/10/30 12:12:34;;;;;;;21.13;19.83;;;13.30;99.90;;;;;;4998308;28;20885;-70
2021/10/30 12:15:04;;;;;;;22.23;20.73;;;13.40;99.90;;;;;;4999777;28;20485;-72
2021/10/30 12:17:36;;;;;;;22.30;20.90;;;13.40;99.90;;;;;;4990997;28;20964;-72
2021/10/30 12:20:06;;;;;;;21.87;20.27;;;13.60;99.90;;;;;;4996907;28;20951;-71
2021/10/30 12:22:39;;;;;;;22.37;20.97;;;13.60;99.90;;;;;;4997774;28;20907;-70
2021/10/30 12:25:08;;;;;;;21.63;20.13;;;13.50;99.90;;;;;;4990354;28;20833;-71
2021/10/30 12:27:37;;;;;;;22.60;21.10;;;13.50;99.90;;;;;;4996125;28;20472;-71
2021/10/30 12:30:12;;;;;;;22.67;21.17;;;13.60;99.90;;;;;;4992641;28;20463;-71
2021/10/30 12:32:42;;;;;;;21.03;19.70;;;13.60;99.90;;;;;;4988204;28;20498;-71
2021/10/30 12:35:14;;;;;;;20.83;19.60;;;13.60;99.90;;;;;;4998394;28;20472;-71
2021/10/30 12:37:43;;;;;;;20.60;19.50;;;13.60;99.90;;;;;;4997968;28;20470;-71
2021/10/30 12:40:10;;;;;;;19.53;18.33;;;13.60;99.90;;;;;;5001937;28;20557;-70
2021/10/30 12:42:37;;;;;;;19.70;18.30;;;13.70;99.90;;;;;;4992589;28;20944;-70